Portada
METAR-TAF:

METAR-TAF

Aeropuertos :

Aeropuerto Internacional Don Mueang

Bangkok, Tailandia

latitud: 13-54-45N, longitud: 100-36-24E, altitud: 4 m

Observación

El informe se hizo hace 18 minutos, a las 08:00 UTC
Viento 9 kt del este-noreste
Temperatura 31°C
Humedad 59%
Presión 1010 hPa
Visibilidad 10 km o más
Escasas nubes a una altura de 2000 ft
Cielo nuboso a una altura de 3000 ft
Cielo nuboso a una altura de 7000 ft

METAR: VTBD 140800Z 06009KT 9999 FEW020 BKN030 BKN070 31/22 Q1010 NOSIG

Hora: 15:18 (08:18 UTC)

Pronóstico

El informe se hizo hace 3 horas y 18 minutos, a las 05:00 UTC
Pronóstico válido del 14 a las 06 UTC al 15 a las 12 UTC
Viento 5 kt del este-noreste
Visibilidad: 9000 m
Escasas nubes a una altura de 2000 ft

TAF: VTBD 140500Z 1406/1512 06005KT 9000 FEW020

Observaciones y pronósticos meteorológicos de más de 4000 aeropuertos (mensajes METAR y TAF).

Los puntos amarillos y rojos representan las estaciones disponibles.

Ponga el ratón en el punto deseado para ver el nombre de la estación.

Haga clic para ver las observaciones y los pronósticos meteorológicos.

Para cambiar el mapa : haga clic en los botones verdes con una cruz de color negro para hacer un zoom, en el botón verde con un guión para alejar o en las flechas verdes para mapas adyacentes.


METAR-TAF: